Archival Weather

Half Moon Bay

Half Moon Bay, California (KHAF)

Report from: Saturday, September 30, 2023 12:55 AM PDT
Current time: Tuesday, July 16, 2024 9:14 AM PDT

Current weather – Weather history – Daily summaries
Weather forecast

Present weatherMist
Temperature16.0°C (60.8°F)
Dew point15.0°C (59.0°F)
Winds 9 kts (4.6 m/s, 10.4 mph) West (280°)
Visibility2.5 mi. (4 km)
Clouds Few clouds 300 ft. (91 m)
Ceiling: Broken clouds 900 ft. (274 m)
Overcast 2,000 ft. (610 m)
Altimeter29.81 in.Hg (1009 mB)
Relative humidity94 %
Density altitude481 ft. (147 m)
Remarks Fully automated report
Automated weather observing station with precipitation discriminator
Flight conditions Instrument Meteorological Conditions
Raw dataKHAF 300755Z AUTO 28009KT 2 1/2SM BR FEW003 BKN009 OVC020 16/15 A2981 RMK AO2
An error has occurred. This application may no longer respond until reloaded. Reload 🗙